Time;durP1;ratioP1;P1;durP2;ratioP2;P2;SDS_P1;SDS_P2;PMS_P1;PMS_P2;Temp;Humidity;BMP_temperature;BMP_pressure;BME280_temperature;BME280_humidity;BME280_pressure;Samples;Min_cycle;Max_cycle;Signal;HPM_P1;HPM_P2
2023/05/04 00:01:00;;;;;;;15.80;2.70;;;;;;;19.57;100.00;101688.59;5038233;28;20446;-86
2023/05/04 00:03:27;;;;;;;17.07;2.87;;;;;;;19.54;100.00;101685.41;5054416;28;20455;-86
2023/05/04 00:05:55;;;;;;;13.13;2.30;;;;;;;19.52;100.00;101684.78;5043377;28;20464;-85
2023/05/04 00:08:23;;;;;;;12.73;2.40;;;;;;;19.51;100.00;101683.94;5061646;28;20432;-86
2023/05/04 00:10:50;;;;;;;10.47;2.00;;;;;;;19.51;100.00;101692.28;5045193;28;20444;-85
2023/05/04 00:13:18;;;;;;;10.90;1.80;;;;;;;19.48;100.00;101700.16;5045505;28;20953;-85
2023/05/04 00:15:45;;;;;;;8.40;2.23;;;;;;;19.41;100.00;101693.84;5043617;28;20432;-86
2023/05/04 00:18:13;;;;;;;17.13;3.00;;;;;;;19.43;100.00;101702.81;5024983;28;20469;-86
2023/05/04 00:20:41;;;;;;;22.03;3.13;;;;;;;19.34;100.00;101693.91;5041140;28;20438;-85
2023/05/04 00:23:08;;;;;;;18.30;2.50;;;;;;;19.33;100.00;101698.59;5025249;28;20434;-85
2023/05/04 00:25:36;;;;;;;13.20;1.83;;;;;;;19.31;100.00;101695.22;5041584;28;20466;-85
2023/05/04 00:28:04;;;;;;;8.03;2.43;;;;;;;19.20;100.00;101682.13;5025385;28;20433;-85
2023/05/04 00:30:32;;;;;;;16.40;2.97;;;;;;;19.21;100.00;101692.13;5041124;28;20444;-85
2023/05/04 00:33:00;;;;;;;7.07;2.20;;;;;;;19.09;100.00;101680.06;5041882;28;20551;-85
2023/05/04 00:35:30;;;;;;;15.53;2.43;;;;;;;19.08;100.00;101683.91;5024963;28;20446;-85
2023/05/04 00:37:57;;;;;;;13.40;2.63;;;;;;;19.07;100.00;101689.69;5041476;28;20449;-85
2023/05/04 00:40:42;;;;;;;15.10;3.00;;;;;;;19.07;100.00;101690.53;5048818;28;20444;-85
2023/05/04 00:43:09;;;;;;;19.17;3.57;;;;;;;19.07;100.00;101690.53;5030999;28;20450;-86
2023/05/04 00:45:37;;;;;;;21.03;4.50;;;;;;;19.04;100.00;101687.41;5057973;28;20441;-85
2023/05/04 00:48:05;;;;;;;25.33;4.67;;;;;;;18.98;100.00;101686.38;5041049;28;20512;-85
2023/05/04 00:50:34;;;;;;;36.40;6.80;;;;;;;18.91;100.00;101688.34;5025482;28;20442;-86
2023/05/04 00:53:08;;;;;;;37.67;6.30;;;;;;;18.91;100.00;101702.19;5025159;28;20516;-85
2023/05/04 00:55:39;;;;;;;35.00;5.97;;;;;;;18.76;100.00;101685.06;5074418;28;20469;-86
2023/05/04 00:58:09;;;;;;;34.83;6.53;;;;;;;18.80;100.00;101701.00;5058060;28;20436;-86
2023/05/04 01:00:37;;;;;;;27.20;6.00;;;;;;;18.72;100.00;101698.50;5057343;28;20495;-85
2023/05/04 01:03:05;;;;;;;29.93;5.50;;;;;;;18.65;100.00;101694.09;5051133;28;20948;-85
2023/05/04 01:05:35;;;;;;;37.00;7.10;;;;;;;18.63;100.00;101697.09;5043457;28;20476;-86
2023/05/04 01:08:09;;;;;;;35.50;6.20;;;;;;;18.62;100.00;101704.53;5059431;28;20445;-85
2023/05/04 01:10:43;;;;;;;25.63;5.40;;;;;;;18.62;100.00;101706.47;5060223;28;20468;-85
2023/05/04 01:13:13;;;;;;;33.23;6.03;;;;;;;18.61;100.00;101705.63;5057476;28;20440;-84
2023/05/04 01:15:41;;;;;;;20.73;4.87;;;;;;;18.61;100.00;101704.78;5059589;28;20473;-85
2023/05/04 01:18:23;;;;;;;24.00;5.23;;;;;;;18.61;100.00;101700.06;5058983;28;20439;-86
2023/05/04 01:20:59;;;;;;;33.17;4.50;;;;;;;18.57;100.00;101692.41;5066645;28;20472;-85
2023/05/04 01:23:29;;;;;;;29.57;4.50;;;;;;;18.52;100.00;101689.44;5044296;28;20901;-86
2023/05/04 01:26:06;;;;;;;16.97;4.73;;;;;;;18.58;100.00;101706.03;5042202;28;21011;-85
2023/05/04 01:28:53;;;;;;;19.13;3.70;;;;;;;18.55;100.00;101709.25;5042015;28;20481;-85
2023/05/04 01:31:22;;;;;;;18.20;3.87;;;;;;;18.46;100.00;101696.75;5027457;28;20477;-85
2023/05/04 01:33:52;;;;;;;16.90;3.83;;;;;;;18.45;100.00;101703.34;5042738;28;20454;-85
2023/05/04 01:36:30;;;;;;;22.93;3.07;;;;;;;18.40;100.00;101700.41;5044461;28;20464;-86
2023/05/04 01:39:02;;;;;;;19.37;3.23;;;;;;;18.41;100.00;101707.63;5063353;28;20480;-85
2023/05/04 01:41:30;;;;;;;18.83;3.50;;;;;;;18.42;100.00;101697.41;5041781;28;20442;-86
2023/05/04 01:44:15;;;;;;;12.37;3.27;;;;;;;18.38;100.00;101701.69;5047875;28;20473;-84
2023/05/04 01:46:51;;;;;;;20.03;3.30;;;;;;;18.38;100.00;101707.22;5035159;28;20935;-86
2023/05/04 01:49:20;;;;;;;10.33;2.90;;;;;;;18.35;100.00;101705.75;5046596;28;20476;-86
2023/05/04 01:51:51;;;;;;;12.50;2.40;;;;;;;18.34;100.00;101701.28;5046071;28;20519;-86
2023/05/04 01:54:19;;;;;;;16.73;2.83;;;;;;;18.32;100.00;101700.63;5062293;28;20808;-85
2023/05/04 01:56:47;;;;;;;11.60;2.83;;;;;;;18.35;100.00;101700.19;5045221;28;20444;-85
2023/05/04 01:59:15;;;;;;;11.10;2.33;;;;;;;18.33;100.00;101688.50;5057462;28;20531;-85
2023/05/04 02:01:43;;;;;;;13.47;3.17;;;;;;;18.39;100.00;101693.16;5024219;28;20841;-85
2023/05/04 02:04:11;;;;;;;15.60;3.37;;;;;;;18.50;100.00;101697.97;5041236;28;20441;-86
2023/05/04 02:06:39;;;;;;;16.23;3.83;;;;;;;18.62;100.00;101679.63;5024402;28;21017;-86
2023/05/04 02:09:06;;;;;;;18.23;4.13;;;;;;;18.75;100.00;101694.44;5040748;28;20442;-86
2023/05/04 02:11:35;;;;;;;19.20;4.10;;;;;;;18.80;100.00;101686.31;5042127;28;20524;-87
2023/05/04 02:14:03;;;;;;;12.80;4.03;;;;;;;18.96;100.00;101702.38;5056331;28;20446;-86
2023/05/04 02:16:31;;;;;;;13.87;4.53;;;;;;;19.05;100.00;101698.22;5051121;28;20833;-86
2023/05/04 02:18:59;;;;;;;14.07;3.93;;;;;;;19.13;100.00;101695.19;5039885;28;20468;-87
2023/05/04 02:21:26;;;;;;;17.20;5.00;;;;;;;19.18;100.00;101689.81;5042588;28;20436;-86
2023/05/04 02:23:54;;;;;;;16.37;4.60;;;;;;;19.27;100.00;101691.19;5075717;28;20839;-85
2023/05/04 02:26:22;;;;;;;14.37;3.87;;;;;;;19.30;100.00;101695.44;5091209;28;20451;-86
2023/05/04 02:28:50;;;;;;;12.13;4.40;;;;;;;19.32;100.00;101694.13;5058441;28;20436;-86
2023/05/04 02:31:18;;;;;;;6.63;2.50;;;;;;;19.28;100.00;101694.81;5038773;28;20940;-86
2023/05/04 02:33:46;;;;;;;16.67;3.77;;;;;;;19.30;100.00;101692.66;5038867;28;20437;-86
2023/05/04 02:36:14;;;;;;;19.30;4.50;;;;;;;19.33;100.00;101709.69;5066322;28;20558;-85
2023/05/04 02:38:43;;;;;;;10.43;3.30;;;;;;;19.29;100.00;101697.38;5039198;28;20434;-85
2023/05/04 02:41:11;;;;;;;10.90;3.83;;;;;;;19.18;100.00;101684.25;5040441;28;20445;-86
2023/05/04 02:43:38;;;;;;;11.53;2.60;;;;;;;19.26;100.00;101703.34;5022382;28;20777;-85
2023/05/04 02:46:06;;;;;;;7.03;2.70;;;;;;;19.25;100.00;101696.13;5022819;28;20445;-85
2023/05/04 02:48:34;;;;;;;11.67;2.73;;;;;;;19.25;100.00;101695.28;5038784;28;20473;-85
2023/05/04 02:51:02;;;;;;;10.73;2.70;;;;;;;19.31;100.00;101697.97;5058926;28;20474;-86
2023/05/04 02:53:31;;;;;;;11.10;3.70;;;;;;;19.33;100.00;101690.28;5042404;28;20938;-85
2023/05/04 02:55:59;;;;;;;10.37;3.37;;;;;;;19.38;100.00;101689.63;5071884;28;20499;-86
2023/05/04 02:58:26;;;;;;;10.60;3.87;;;;;;;19.39;100.00;101696.84;5022893;28;20434;-85
2023/05/04 03:00:57;;;;;;;13.87;3.60;;;;;;;19.37;100.00;101695.38;5041946;28;21054;-84
2023/05/04 03:03:24;;;;;;;10.20;3.17;;;;;;;19.35;100.00;101689.22;5043107;28;20455;-85
2023/05/04 03:05:51;;;;;;;9.90;3.23;;;;;;;19.38;100.00;101694.31;5058392;28;20448;-85
2023/05/04 03:08:19;;;;;;;14.37;3.30;;;;;;;19.37;100.00;101700.94;5058432;28;20443;-85
2023/05/04 03:10:47;;;;;;;7.27;3.27;;;;;;;19.33;100.00;101701.38;5064630;28;20438;-85
2023/05/04 03:13:16;;;;;;;10.80;3.17;;;;;;;19.37;100.00;101718.41;5022707;28;20441;-85
2023/05/04 03:15:44;;;;;;;12.90;4.37;;;;;;;19.28;100.00;101705.91;5055347;28;20808;-85
2023/05/04 03:18:11;;;;;;;15.37;3.67;;;;;;;19.27;100.00;101710.59;5027860;28;20534;-85
2023/05/04 03:20:39;;;;;;;13.73;3.57;;;;;;;19.25;100.00;101706.34;5038238;28;20470;-86
2023/05/04 03:23:07;;;;;;;7.33;3.40;;;;;;;19.24;100.00;101719.38;5031054;28;20441;-85
2023/05/04 03:25:36;;;;;;;9.77;3.50;;;;;;;19.22;100.00;101713.22;5038499;28;20529;-87
2023/05/04 03:28:04;;;;;;;8.47;3.30;;;;;;;19.21;100.00;101711.53;5041477;28;20507;-85
2023/05/04 03:30:32;;;;;;;11.37;3.40;;;;;;;19.21;100.00;101721.78;5038975;28;20440;-85
2023/05/04 03:33:00;;;;;;;8.60;2.80;;;;;;;19.17;100.00;101710.28;5024944;28;20441;-85
2023/05/04 03:35:28;;;;;;;6.60;2.60;;;;;;;19.12;100.00;101701.78;5058644;28;20441;-86
2023/05/04 03:37:56;;;;;;;9.83;2.83;;;;;;;19.14;100.00;101713.50;5042120;28;20502;-85
2023/05/04 03:40:24;;;;;;;10.50;3.33;;;;;;;19.09;100.00;101713.31;5032342;28;20995;-85
2023/05/04 03:42:53;;;;;;;11.00;3.20;;;;;;;19.00;100.00;101703.63;5048900;28;20441;-87
2023/05/04 03:45:22;;;;;;;10.83;2.87;;;;;;;18.98;100.00;101719.63;5057310;28;20433;-85
2023/05/04 03:47:49;;;;;;;9.47;3.10;;;;;;;18.90;100.00;101719.88;5025876;28;20495;-86
2023/05/04 03:50:17;;;;;;;10.30;3.43;;;;;;;18.85;100.00;101714.19;5058962;28;20433;-86
2023/05/04 03:52:45;;;;;;;12.50;3.30;;;;;;;18.80;100.00;101723.16;5040352;28;20459;-86
2023/05/04 03:55:13;;;;;;;6.40;2.50;;;;;;;18.76;100.00;101707.22;5042410;28;20769;-85
2023/05/04 03:57:40;;;;;;;6.40;2.70;;;;;;;18.76;100.00;101721.91;5036964;28;20469;-87
2023/05/04 04:00:08;;;;;;;12.73;3.10;;;;;;;18.73;100.00;101707.66;5025648;28;20481;-86
2023/05/04 04:02:37;;;;;;;10.73;2.67;;;;;;;18.79;100.00;101721.47;5063054;28;20432;-86
2023/05/04 04:05:09;;;;;;;12.10;3.40;;;;;;;18.79;100.00;101713.16;5025365;28;20489;-86
2023/05/04 04:07:37;;;;;;;8.97;2.77;;;;;;;18.73;100.00;101713.19;5058793;28;20519;-86
2023/05/04 04:10:08;;;;;;;12.13;3.73;;;;;;;18.70;100.00;101720.03;5025599;28;20849;-86
2023/05/04 04:12:35;;;;;;;9.50;3.20;;;;;;;18.63;100.00;101709.00;5041511;28;20437;-85
2023/05/04 04:15:03;;;;;;;12.20;3.20;;;;;;;18.57;100.00;101697.94;5075601;28;20468;-86
2023/05/04 04:17:31;;;;;;;7.43;2.80;;;;;;;18.63;100.00;101709.00;5061619;28;20438;-86
2023/05/04 04:20:00;;;;;;;11.93;2.63;;;;;;;18.63;100.00;101720.09;5024890;28;20519;-86
2023/05/04 04:22:28;;;;;;;13.80;3.80;;;;;;;18.59;100.00;101709.69;5076656;28;20438;-86
2023/05/04 04:24:56;;;;;;;10.90;3.20;;;;;;;18.55;100.00;101706.47;5025203;28;20898;-86
2023/05/04 04:27:24;;;;;;;11.63;3.03;;;;;;;18.51;100.00;101701.59;5041845;28;20939;-85
2023/05/04 04:29:51;;;;;;;10.37;3.50;;;;;;;18.43;100.00;101705.50;5031055;28;20433;-86
2023/05/04 04:32:20;;;;;;;11.07;2.77;;;;;;;18.29;100.00;101692.78;5035441;28;20446;-86
2023/05/04 04:34:47;;;;;;;9.47;3.23;;;;;;;18.30;100.00;101702.78;5055659;28;20787;-86
2023/05/04 04:37:15;;;;;;;9.53;2.83;;;;;;;18.22;100.00;101701.13;5049258;28;20434;-86
2023/05/04 04:39:42;;;;;;;10.13;2.73;;;;;;;18.21;100.00;101704.13;5024974;28;20511;-85
2023/05/04 04:42:12;;;;;;;16.57;2.97;;;;;;;18.23;100.00;101713.06;5041039;28;20438;-86
2023/05/04 04:44:40;;;;;;;6.40;2.77;;;;;;;18.13;100.00;101713.50;5060060;28;20446;-86
2023/05/04 04:47:08;;;;;;;6.40;2.57;;;;;;;18.03;100.00;101701.22;5039876;28;20442;-85
2023/05/04 04:49:35;;;;;;;4.30;2.60;;;;;;;17.95;100.00;101711.47;5040726;28;20481;-86
2023/05/04 04:52:03;;;;;;;6.47;2.60;;;;;;;17.95;100.00;101714.22;5036378;28;20445;-86
2023/05/04 04:54:31;;;;;;;6.10;3.00;;;;;;;17.91;100.00;101718.50;5060713;28;20451;-85
2023/05/04 04:56:58;;;;;;;7.50;2.37;;;;;;;17.84;100.00;101720.47;5044238;28;20440;-85
2023/05/04 04:59:27;;;;;;;7.63;3.17;;;;;;;17.74;100.00;101708.13;5060857;28;22361;-85
2023/05/04 05:01:56;;;;;;;5.73;2.80;;;;;;;17.72;100.00;101708.34;5052450;28;20438;-86
2023/05/04 05:04:26;;;;;;;4.57;2.13;;;;;;;17.77;100.00;101722.38;5068239;28;20441;-86
2023/05/04 05:06:54;;;;;;;6.90;2.83;;;;;;;17.67;100.00;101713.69;5057259;28;20441;-85
2023/05/04 05:09:22;;;;;;;8.13;3.20;;;;;;;17.73;100.00;101717.50;5068572;28;20451;-85
2023/05/04 05:11:50;;;;;;;8.80;2.80;;;;;;;17.66;100.00;101717.53;5060708;28;20444;-86
2023/05/04 05:14:18;;;;;;;7.27;3.27;;;;;;;17.62;100.00;101721.75;5043254;28;20453;-85
2023/05/04 05:16:46;;;;;;;5.70;3.10;;;;;;;17.63;100.00;101728.13;5071004;28;20437;-85
2023/05/04 05:19:14;;;;;;;8.57;3.17;;;;;;;17.59;100.00;101736.84;5029998;28;20492;-85
2023/05/04 05:21:41;;;;;;;9.27;2.90;;;;;;;17.47;100.00;101722.00;5024304;28;21010;-85
2023/05/04 05:24:10;;;;;;;10.53;3.80;;;;;;;17.47;100.00;101734.97;5040478;28;20449;-85
2023/05/04 05:26:37;;;;;;;10.20;2.83;;;;;;;17.42;100.00;101740.28;5055726;28;20446;-85
2023/05/04 05:29:05;;;;;;;12.73;3.47;;;;;;;17.33;100.00;101736.03;5070386;28;20452;-85
2023/05/04 05:31:33;;;;;;;10.13;4.40;;;;;;;17.33;100.00;101733.28;5059891;28;20527;-85
2023/05/04 05:34:01;;;;;;;20.97;4.17;;;;;;;17.31;100.00;101740.97;5060019;28;20447;-85
2023/05/04 05:36:33;;;;;;;11.37;3.90;;;;;;;17.26;100.00;101734.16;5060279;28;20950;-85
2023/05/04 05:39:01;;;;;;;17.03;4.13;;;;;;;17.26;100.00;101741.59;5075555;28;20437;-85
2023/05/04 05:41:28;;;;;;;17.77;4.00;;;;;;;17.18;100.00;101734.34;5055707;28;20483;-85
2023/05/04 05:43:56;;;;;;;15.20;3.23;;;;;;;17.19;100.00;101741.59;5056464;28;20529;-85
2023/05/04 05:46:24;;;;;;;13.40;3.23;;;;;;;17.17;100.00;101740.94;5024776;28;20849;-86
2023/05/04 05:48:51;;;;;;;19.93;3.90;;;;;;;17.14;100.00;101749.66;5031020;28;20465;-85
2023/05/04 05:51:19;;;;;;;8.70;3.60;;;;;;;17.12;100.00;101754.56;5035500;28;20906;-85
2023/05/04 05:53:51;;;;;;;13.87;3.07;;;;;;;17.16;100.00;101761.34;5004170;28;20454;-85
2023/05/04 05:56:19;;;;;;;15.73;3.73;;;;;;;17.20;100.00;101761.78;5020073;28;20553;-85
2023/05/04 05:58:46;;;;;;;31.27;3.57;;;;;;;17.20;100.00;101757.09;5019711;28;20435;-85
2023/05/04 06:01:17;;;;;;;16.83;3.00;;;;;;;17.27;100.00;101760.72;5004575;28;20486;-86
2023/05/04 06:03:45;;;;;;;12.13;3.20;;;;;;;17.31;100.00;101760.31;5039060;28;20442;-85
2023/05/04 06:06:14;;;;;;;21.43;3.87;;;;;;;17.31;100.00;101760.31;5012159;28;20949;-85
2023/05/04 06:08:42;;;;;;;11.87;3.53;;;;;;;17.38;100.00;101758.38;5017244;28;20449;-85
2023/05/04 06:11:10;;;;;;;22.17;5.07;;;;;;;17.44;100.00;101752.84;5006902;28;20449;-86
2023/05/04 06:13:39;;;;;;;32.13;6.30;;;;;;;17.55;100.00;101765.13;5036731;28;20521;-85
2023/05/04 06:16:07;;;;;;;26.07;6.50;;;;;;;17.71;100.00;101763.88;5014553;28;20474;-85
2023/05/04 06:18:35;;;;;;;18.40;4.90;;;;;;;17.83;100.00;101763.00;5018984;28;20453;-85
2023/05/04 06:21:03;;;;;;;16.57;5.47;;;;;;;18.06;100.00;101767.19;5025775;28;20975;-85
2023/05/04 06:23:31;;;;;;;14.80;5.03;;;;;;;18.23;100.00;101768.41;5016750;28;20944;-84
2023/05/04 06:26:04;;;;;;;12.77;3.70;;;;;;;18.29;100.00;101767.50;5004245;28;20542;-85
2023/05/04 06:28:32;;;;;;;18.33;5.10;;;;;;;18.23;100.00;101762.88;5004164;28;20533;-85
2023/05/04 06:31:01;;;;;;;21.30;6.20;;;;;;;18.25;100.00;101763.50;5025193;28;20450;-85
2023/05/04 06:33:48;;;;;;;22.23;5.50;;;;;;;18.37;100.00;101775.56;5011407;28;20516;-85
2023/05/04 06:36:16;;;;;;;23.23;4.77;;;;;;;18.48;100.00;101782.31;5008779;28;20445;-86
2023/05/04 06:38:43;;;;;;;26.30;5.70;;;;;;;18.55;100.00;101784.00;5008220;28;20867;-86
2023/05/04 06:41:11;;;;;;;24.83;5.73;;;;;;;18.53;100.00;101769.53;5019006;28;20573;-86
2023/05/04 06:43:59;;;;;;;27.33;5.97;;;;;;;18.66;100.00;101789.97;5043619;28;20777;-86
2023/05/04 06:46:34;;;;;;;19.37;5.07;;;;;;;18.75;100.00;101792.22;5038888;28;20546;-86
2023/05/04 06:49:03;;;;;;;17.70;4.67;;;;;;;18.76;100.00;101779.22;5049359;28;20524;-86
2023/05/04 06:51:31;;;;;;;16.87;5.60;;;;;;;18.86;100.00;101791.50;5058806;28;20445;-85
2023/05/04 06:53:59;;;;;;;15.50;4.67;;;;;;;18.91;100.00;101796.38;5058545;28;20874;-85
2023/05/04 06:56:27;;;;;;;14.43;4.83;;;;;;;18.97;100.00;101801.03;5040669;28;20436;-86
2023/05/04 06:58:55;;;;;;;18.50;6.33;;;;;;;19.05;100.00;101806.28;5031824;28;20531;-86
2023/05/04 07:01:23;;;;;;;17.43;4.80;;;;;;;19.10;100.00;101803.72;5052015;28;21074;-85
2023/05/04 07:03:51;;;;;;;17.10;6.10;;;;;;;19.18;100.00;101809.00;5055185;28;20795;-86
2023/05/04 07:06:19;;;;;;;12.43;4.23;;;;;;;19.15;100.00;101800.28;5030967;28;20441;-86
2023/05/04 07:08:47;;;;;;;14.27;6.00;;;;;;;19.22;100.00;101824.09;5042003;28;20441;-85
2023/05/04 07:11:15;;;;;;;11.50;5.60;;;;;;;19.28;100.00;101834.28;5039232;28;20445;-89
2023/05/04 07:13:44;;;;;;;15.70;7.07;;;;;;;19.24;100.00;101823.88;5038813;28;20449;-88
2023/05/04 07:16:14;;;;;;;20.83;6.23;;;;;;;19.25;100.00;101826.41;5028957;28;20495;-88
2023/05/04 07:18:46;;;;;;;11.47;5.20;;;;;;;19.19;100.00;101830.09;5077406;28;20528;-87
2023/05/04 07:21:16;;;;;;;14.97;5.80;;;;;;;19.14;100.00;101818.81;5064147;28;20468;-87
2023/05/04 07:24:20;;;;;;;17.97;4.73;;;;;;;19.13;100.00;101825.44;5079444;28;20436;-87
2023/05/04 07:26:49;;;;;;;17.63;4.97;;;;;;;19.24;100.00;101838.56;5078846;28;20437;-88
2023/05/04 07:29:17;;;;;;;19.10;4.97;;;;;;;19.30;100.00;101834.91;5046086;28;20440;-87
2023/05/04 07:31:45;;;;;;;17.77;4.20;;;;;;;19.39;100.00;101840.19;5035505;28;20433;-86
2023/05/04 07:34:15;;;;;;;10.90;4.10;;;;;;;19.39;100.00;101829.09;5052092;28;20445;-87
2023/05/04 07:36:43;;;;;;;20.23;3.90;;;;;;;19.53;100.00;101826.00;5046707;28;20516;-87
2023/05/04 07:39:17;;;;;;;3.90;2.13;;;;;;;19.65;100.00;101835.28;5057963;28;20437;-87
2023/05/04 07:41:45;;;;;;;9.50;2.53;;;;;;;19.80;100.00;101837.72;5048880;28;20480;-87
2023/05/04 07:44:18;;;;;;;9.40;3.50;;;;;;;19.93;100.00;101842.28;5063214;28;20442;-89
2023/05/04 07:46:48;;;;;;;10.23;2.50;;;;;;;19.99;100.00;101836.66;5042528;28;20486;-85
2023/05/04 07:49:16;;;;;;;10.70;2.40;;;;;;;20.13;100.00;101848.47;5017007;28;20573;-88
2023/05/04 07:51:44;;;;;;;13.20;1.83;;;;;;;20.24;100.00;101855.16;5033799;28;20449;-87
2023/05/04 07:57:59;;;;;;;14.37;1.77;;;;;;;20.31;100.00;101833.75;5058753;28;20504;-87
2023/05/04 08:00:27;;;;;;;19.17;2.53;;;;;;;20.38;100.00;101837.34;5006070;28;21042;-87
2023/05/04 08:02:55;;;;;;;8.40;1.30;;;;;;;20.51;100.00;101844.66;5006216;28;20945;-87
2023/05/04 08:05:23;;;;;;;12.40;2.33;;;;;;;20.50;100.00;101832.69;5006233;28;20500;-87
2023/05/04 08:07:52;;;;;;;8.33;1.30;;;;;;;20.57;100.00;101839.00;5038762;28;20484;-87
2023/05/04 08:10:23;;;;;;;9.57;1.53;;;;;;;20.63;100.00;101860.28;5038926;28;20797;-87
2023/05/04 08:12:51;;;;;;;11.50;1.90;;;;;;;20.63;100.00;101854.72;5006254;28;20860;-87
2023/05/04 08:15:23;;;;;;;12.97;1.83;;;;;;;20.64;100.00;101850.88;5022002;28;20434;-87
2023/05/04 08:17:53;;;;;;;10.23;1.23;;;;;;;20.68;100.00;101845.69;5023295;28;20431;-87
2023/05/04 08:20:22;;;;;;;11.37;1.50;;;;;;;20.65;100.00;101852.56;5022331;28;20505;-87
2023/05/04 08:22:50;;;;;;;7.53;1.60;;;;;;;20.76;100.00;101852.88;5038394;28;20956;-87
2023/05/04 08:25:27;;;;;;;6.90;1.70;;;;;;;20.80;99.71;101865.19;5038506;28;20525;-87
2023/05/04 08:27:55;;;;;;;6.70;1.60;;;;;;;20.90;98.92;101871.06;5037186;28;20438;-87
2023/05/04 08:33:15;;;;;;;9.30;1.90;;;;;;;20.99;96.96;101869.63;5055821;28;20435;-87
2023/05/04 08:35:44;;;;;;;8.63;1.70;;;;;;;21.06;96.05;101881.53;5037920;28;20452;-87
2023/05/04 08:38:15;;;;;;;8.00;2.00;;;;;;;21.06;95.23;101867.63;5005917;28;21001;-86
2023/05/04 08:40:45;;;;;;;7.57;1.33;;;;;;;21.21;94.06;101887.53;5055156;28;20891;-87
2023/05/04 08:43:16;;;;;;;8.83;1.80;;;;;;;21.24;92.86;101873.16;5006707;28;20449;-88
2023/05/04 08:45:44;;;;;;;8.83;1.20;;;;;;;21.32;92.09;101892.31;5037406;28;20466;-87
2023/05/04 08:48:12;;;;;;;7.93;1.40;;;;;;;21.28;91.34;101870.75;5024630;28;20560;-87
2023/05/04 08:50:41;;;;;;;13.37;1.43;;;;;;;21.40;91.03;101887.47;5025043;28;20449;-87
2023/05/04 08:53:20;;;;;;;7.53;1.47;;;;;;;21.50;90.03;101888.59;5028130;28;20445;-86
2023/05/04 08:55:49;;;;;;;8.20;1.13;;;;;;;21.51;89.36;101883.88;5041590;28;20437;-87
2023/05/04 08:58:17;;;;;;;8.70;1.47;;;;;;;21.57;89.05;101885.69;5024990;28;20864;-87
2023/05/04 09:00:46;;;;;;;7.33;1.40;;;;;;;21.69;88.10;101893.00;5051883;28;20874;-87
2023/05/04 09:48:37;;;;;;;10.07;3.70;;;;;;;22.84;72.87;101931.38;5073915;28;20604;-88
2023/05/04 09:51:06;;;;;;;12.13;2.83;;;;;;;22.95;72.20;101919.34;5023563;28;20454;-88
2023/05/04 09:53:34;;;;;;;11.53;1.33;;;;;;;23.04;71.68;101914.22;5024142;28;20495;-88
2023/05/04 09:56:10;;;;;;;6.90;1.27;;;;;;;23.20;71.51;101932.94;5023202;28;20445;-88
2023/05/04 09:58:39;;;;;;;4.87;1.30;;;;;;;23.21;71.51;101912.34;5056673;28;20437;-87
2023/05/04 10:01:22;;;;;;;17.77;2.33;;;;;;;23.36;70.62;101931.31;5073664;28;20482;-87
2023/05/04 10:03:55;;;;;;;13.37;1.30;;;;;;;23.40;71.01;101927.75;5027235;28;20499;-88
2023/05/04 10:06:25;;;;;;;7.80;1.50;;;;;;;23.42;70.49;101920.00;5023204;28;20456;-88
2023/05/04 10:09:14;;;;;;;7.33;1.23;;;;;;;23.27;70.00;101919.72;5029745;28;20513;-88
2023/05/04 10:11:46;;;;;;;11.13;1.63;;;;;;;23.30;70.68;101932.28;5040471;28;20434;-87
2023/05/04 10:14:19;;;;;;;9.73;1.63;;;;;;;23.33;70.41;101918.69;5040093;28;20440;-88
2023/05/04 10:17:07;;;;;;;8.67;1.90;;;;;;;23.57;70.32;101932.56;5024023;28;20445;-88
2023/05/04 10:20:21;;;;;;;6.70;1.07;;;;;;;23.76;70.14;101934.88;5056889;28;20528;-88
2023/05/04 11:06:18;;;;;;;6.40;1.23;;;;;;;25.28;63.04;101922.25;5071584;28;20453;-87
2023/05/04 11:09:01;;;;;;;9.17;1.87;;;;;;;25.46;63.09;101912.66;5023436;28;20444;-87
2023/05/04 11:11:28;;;;;;;9.20;1.50;;;;;;;25.68;62.48;101932.22;5038962;28;20459;-88
2023/05/04 11:13:58;;;;;;;7.67;1.47;;;;;;;25.75;61.21;101924.44;5023460;28;20437;-87
2023/05/04 11:16:26;;;;;;;7.80;1.53;;;;;;;25.74;60.73;101925.56;5022362;28;20442;-88
2023/05/04 11:18:54;;;;;;;6.73;1.57;;;;;;;25.75;60.71;101921.66;5022696;28;20538;-87
2023/05/04 11:21:27;;;;;;;4.70;0.93;;;;;;;25.70;60.19;101924.41;5038943;28;20507;-87
2023/05/04 11:23:58;;;;;;;7.07;1.03;;;;;;;25.63;59.94;101919.00;5055215;28;20620;-87
2023/05/04 11:26:27;;;;;;;3.50;0.80;;;;;;;25.66;59.64;101909.22;5038523;28;20456;-87
2023/05/04 11:28:56;;;;;;;7.70;1.10;;;;;;;25.78;59.43;101912.72;5023383;28;20786;-88
2023/05/04 11:31:23;;;;;;;6.00;1.07;;;;;;;25.81;59.45;101909.34;5022582;28;20433;-88
2023/05/04 11:33:53;;;;;;;4.10;0.93;;;;;;;25.87;58.52;101922.31;5022485;28;20862;-87
2023/05/04 11:36:21;;;;;;;6.90;1.40;;;;;;;25.90;58.92;101906.94;5071680;28;21027;-87
2023/05/04 11:38:49;;;;;;;12.07;1.60;;;;;;;25.88;59.27;101897.94;5022147;28;20437;-87
2023/05/04 11:41:17;;;;;;;6.13;1.00;;;;;;;25.86;59.51;101895.41;5022328;28;20477;-87
2023/05/04 11:43:45;;;;;;;7.70;1.47;;;;;;;25.82;58.95;101902.66;5022599;28;20437;-88
2023/05/04 11:46:13;;;;;;;6.63;1.07;;;;;;;25.70;59.90;101885.19;5022300;28;20499;-88
2023/05/04 11:48:46;;;;;;;7.17;1.37;;;;;;;25.72;60.67;101888.56;5022317;28;20441;-87
2023/05/04 11:51:16;;;;;;;9.03;1.40;;;;;;;25.96;60.52;101901.09;5071036;28;20473;-87
2023/05/04 11:53:44;;;;;;;10.53;1.37;;;;;;;26.03;59.89;101895.25;5021843;28;20511;-88
2023/05/04 11:56:12;;;;;;;7.00;1.50;;;;;;;26.06;59.49;101887.16;5022016;28;20846;-87
2023/05/04 11:58:40;;;;;;;11.23;1.37;;;;;;;26.21;59.39;101882.75;5022363;28;20434;-87
2023/05/04 12:01:08;;;;;;;7.50;0.83;;;;;;;26.29;58.58;101876.66;5023584;28;21034;-87
2023/05/04 12:03:38;;;;;;;7.33;1.30;;;;;;;26.36;58.28;101872.50;5058335;28;20491;-88
2023/05/04 12:06:31;;;;;;;7.13;1.03;;;;;;;26.43;57.80;101875.06;5029458;28;20638;-88
2023/05/04 12:09:06;;;;;;;10.17;1.50;;;;;;;26.45;57.56;101858.81;5039913;28;20442;-87
2023/05/04 12:11:34;;;;;;;12.60;1.50;;;;;;;26.52;56.69;101859.44;5017123;28;20495;-87
2023/05/04 12:14:08;;;;;;;3.53;0.80;;;;;;;26.54;56.28;101853.56;5021962;28;20974;-88
2023/05/04 12:16:36;;;;;;;6.93;0.93;;;;;;;26.61;56.11;101852.16;5022688;28;20438;-88
2023/05/04 12:19:09;;;;;;;9.23;1.10;;;;;;;26.70;55.42;101850.53;5005519;28;20442;-87
2023/05/04 12:21:48;;;;;;;6.10;1.40;;;;;;;26.71;54.97;101843.81;5053306;28;20486;-87
2023/05/04 12:24:16;;;;;;;5.73;1.20;;;;;;;26.87;55.05;101855.06;5054653;28;20431;-87
2023/05/04 12:26:44;;;;;;;5.40;1.20;;;;;;;26.92;54.81;101853.13;5021464;28;20435;-87
2023/05/04 12:29:12;;;;;;;4.43;0.90;;;;;;;27.06;54.41;101853.47;5021733;28;20446;-88
2023/05/04 12:31:40;;;;;;;6.60;1.17;;;;;;;27.09;53.55;101852.94;5021431;28;20541;-88
2023/05/04 12:34:07;;;;;;;5.27;1.10;;;;;;;27.07;53.81;101846.75;5021623;28;20847;-87
2023/05/04 12:36:35;;;;;;;3.30;0.93;;;;;;;;;;5037743;28;20443;-87
2023/05/04 12:39:03;;;;;;;6.73;0.83;;;;;;;;;;5055495;28;20435;-88
2023/05/04 12:41:31;;;;;;;5.83;1.07;;;;;;;;;;5055196;28;20521;-87
2023/05/04 12:43:59;;;;;;;6.53;1.27;;;;;;;;;;5021179;28;20438;-88
2023/05/04 12:46:27;;;;;;;4.83;1.30;;;;;;;;;;5037883;28;20438;-87
2023/05/04 12:48:55;;;;;;;6.00;0.67;;;;;;;;;;5021407;28;20438;-87
2023/05/04 12:51:23;;;;;;;9.53;1.00;;;;;;;;;;5021195;28;20457;-87
2023/05/04 12:53:51;;;;;;;4.03;1.17;;;;;;;;;;5037640;28;20493;-87
2023/05/04 12:56:19;;;;;;;4.50;1.07;;;;;;;;;;5055312;28;20437;-87
2023/05/04 12:58:46;;;;;;;5.17;0.80;;;;;;;;;;5037443;28;20963;-87
2023/05/04 13:01:13;;;;;;;5.50;1.13;;;;;;;;;;5022336;28;20461;-88
2023/05/04 13:03:44;;;;;;;5.30;1.30;;;;;;;;;;5037404;28;20438;-88
2023/05/04 13:06:11;;;;;;;8.40;1.30;;;;;;;;;;5056294;28;20468;-87
2023/05/04 13:08:39;;;;;;;5.03;1.50;;;;;;;;;;5057244;28;20477;-87